Paton, Iowa
Current Conditions -  °F | °C
As of 9:55 AM on Thursday 23 Oct 2014 (Local Time) from KBNW Reporting Station
Haze Haze  
Wind Chill: 55°   Ceiling: 300
Heat Index: 55°   Visibility: 1.7mi
Dew Point: 55°   Wind: 3mph
Humidity: 100%   Direction: 230°SW
Pressure: 30.04"   Gusts: NA
Location:  42.16°N, 94.26°W
Report Text: KBNW 231455Z AUTO 23003KT 1 3/4SM BR OVC003 13/13 A3004 RMK AO2
Loading
Personal Weather Stations






























Interactive Weather Map
Tropical Storm Tracking
New forecast layout! Learn more

10-Day Weather Forecast

Advertisements
Track Severe Weather on mobile